sensor_id;sensor_type;location;lat;lon;timestamp;P1;durP1;ratioP1;P2;durP2;ratioP2
16310;SDS011;8264;48.510;8.872;2023-06-10T00:01:03;6.87;;;5.50;;
16310;SDS011;8264;48.510;8.872;2023-06-10T00:03:30;5.50;;;4.87;;
16310;SDS011;8264;48.510;8.872;2023-06-10T00:05:57;6.03;;;4.87;;
16310;SDS011;8264;48.510;8.872;2023-06-10T00:08:24;6.20;;;5.60;;
16310;SDS011;8264;48.510;8.872;2023-06-10T00:10:51;5.60;;;5.00;;
16310;SDS011;8264;48.510;8.872;2023-06-10T00:13:17;8.07;;;5.47;;
16310;SDS011;8264;48.510;8.872;2023-06-10T00:15:43;6.77;;;5.70;;
16310;SDS011;8264;48.510;8.872;2023-06-10T00:18:10;6.60;;;5.93;;
16310;SDS011;8264;48.510;8.872;2023-06-10T00:20:36;6.93;;;5.40;;
16310;SDS011;8264;48.510;8.872;2023-06-10T00:23:05;5.83;;;5.33;;
16310;SDS011;8264;48.510;8.872;2023-06-10T00:25:33;6.80;;;5.00;;
16310;SDS011;8264;48.510;8.872;2023-06-10T00:27:59;7.90;;;5.70;;
16310;SDS011;8264;48.510;8.872;2023-06-10T00:30:26;6.27;;;5.53;;
16310;SDS011;8264;48.510;8.872;2023-06-10T00:32:53;7.20;;;5.73;;
16310;SDS011;8264;48.510;8.872;2023-06-10T00:35:19;7.13;;;6.17;;
16310;SDS011;8264;48.510;8.872;2023-06-10T00:37:45;8.53;;;6.23;;
16310;SDS011;8264;48.510;8.872;2023-06-10T00:40:13;7.80;;;6.17;;
16310;SDS011;8264;48.510;8.872;2023-06-10T00:42:40;6.73;;;6.03;;
16310;SDS011;8264;48.510;8.872;2023-06-10T00:45:07;6.80;;;6.20;;
16310;SDS011;8264;48.510;8.872;2023-06-10T00:47:34;6.97;;;6.37;;
16310;SDS011;8264;48.510;8.872;2023-06-10T00:50:01;6.20;;;5.60;;
16310;SDS011;8264;48.510;8.872;2023-06-10T00:52:28;5.73;;;5.23;;
16310;SDS011;8264;48.510;8.872;2023-06-10T00:54:55;7.50;;;6.00;;
16310;SDS011;8264;48.510;8.872;2023-06-10T00:57:23;6.50;;;5.80;;
16310;SDS011;8264;48.510;8.872;2023-06-10T00:59:50;6.23;;;5.17;;
16310;SDS011;8264;48.510;8.872;2023-06-10T01:02:17;6.80;;;6.07;;
16310;SDS011;8264;48.510;8.872;2023-06-10T01:04:43;6.10;;;5.50;;
16310;SDS011;8264;48.510;8.872;2023-06-10T01:07:14;6.03;;;5.43;;
16310;SDS011;8264;48.510;8.872;2023-06-10T01:09:45;6.10;;;5.50;;
16310;SDS011;8264;48.510;8.872;2023-06-10T01:12:16;7.53;;;5.83;;
16310;SDS011;8264;48.510;8.872;2023-06-10T01:14:46;8.90;;;5.70;;
16310;SDS011;8264;48.510;8.872;2023-06-10T01:17:13;5.97;;;5.40;;
16310;SDS011;8264;48.510;8.872;2023-06-10T01:19:43;6.20;;;5.60;;
16310;SDS011;8264;48.510;8.872;2023-06-10T01:22:11;6.63;;;5.43;;
16310;SDS011;8264;48.510;8.872;2023-06-10T01:24:41;6.50;;;5.90;;
16310;SDS011;8264;48.510;8.872;2023-06-10T01:27:09;7.57;;;5.20;;
16310;SDS011;8264;48.510;8.872;2023-06-10T01:29:41;6.90;;;6.30;;
16310;SDS011;8264;48.510;8.872;2023-06-10T01:32:12;6.00;;;5.40;;
16310;SDS011;8264;48.510;8.872;2023-06-10T01:34:42;7.70;;;6.90;;
16310;SDS011;8264;48.510;8.872;2023-06-10T01:37:09;7.67;;;6.97;;
16310;SDS011;8264;48.510;8.872;2023-06-10T01:39:39;9.77;;;7.37;;
16310;SDS011;8264;48.510;8.872;2023-06-10T01:42:06;6.67;;;5.97;;
16310;SDS011;8264;48.510;8.872;2023-06-10T01:44:33;6.80;;;6.10;;
16310;SDS011;8264;48.510;8.872;2023-06-10T01:47:00;6.80;;;6.20;;
16310;SDS011;8264;48.510;8.872;2023-06-10T01:49:27;7.07;;;6.17;;
16310;SDS011;8264;48.510;8.872;2023-06-10T01:51:53;6.80;;;6.20;;
16310;SDS011;8264;48.510;8.872;2023-06-10T01:54:21;7.60;;;6.90;;
16310;SDS011;8264;48.510;8.872;2023-06-10T01:56:48;6.87;;;6.23;;
16310;SDS011;8264;48.510;8.872;2023-06-10T01:59:14;7.17;;;6.47;;
16310;SDS011;8264;48.510;8.872;2023-06-10T02:01:41;7.50;;;6.47;;
16310;SDS011;8264;48.510;8.872;2023-06-10T02:04:07;7.50;;;6.80;;
16310;SDS011;8264;48.510;8.872;2023-06-10T02:06:34;7.70;;;6.90;;
16310;SDS011;8264;48.510;8.872;2023-06-10T02:09:00;8.37;;;6.73;;
16310;SDS011;8264;48.510;8.872;2023-06-10T02:11:28;8.30;;;7.00;;
16310;SDS011;8264;48.510;8.872;2023-06-10T02:13:55;7.80;;;7.03;;
16310;SDS011;8264;48.510;8.872;2023-06-10T02:16:21;8.90;;;6.87;;
16310;SDS011;8264;48.510;8.872;2023-06-10T02:18:48;7.23;;;6.53;;
16310;SDS011;8264;48.510;8.872;2023-06-10T02:21:14;8.40;;;7.60;;
16310;SDS011;8264;48.510;8.872;2023-06-10T02:23:41;7.43;;;6.73;;
16310;SDS011;8264;48.510;8.872;2023-06-10T02:26:07;7.77;;;6.37;;
16310;SDS011;8264;48.510;8.872;2023-06-10T02:28:35;7.77;;;7.03;;
16310;SDS011;8264;48.510;8.872;2023-06-10T02:31:02;9.20;;;7.83;;
16310;SDS011;8264;48.510;8.872;2023-06-10T02:33:28;7.07;;;6.40;;
16310;SDS011;8264;48.510;8.872;2023-06-10T02:35:55;7.07;;;6.47;;
16310;SDS011;8264;48.510;8.872;2023-06-10T02:38:21;6.83;;;6.20;;
16310;SDS011;8264;48.510;8.872;2023-06-10T02:40:48;6.67;;;5.90;;
16310;SDS011;8264;48.510;8.872;2023-06-10T02:43:14;6.43;;;5.83;;
16310;SDS011;8264;48.510;8.872;2023-06-10T02:45:42;7.43;;;6.70;;
16310;SDS011;8264;48.510;8.872;2023-06-10T02:48:09;7.80;;;6.20;;
16310;SDS011;8264;48.510;8.872;2023-06-10T02:50:35;7.47;;;6.77;;
16310;SDS011;8264;48.510;8.872;2023-06-10T02:53:03;7.47;;;6.83;;
16310;SDS011;8264;48.510;8.872;2023-06-10T02:55:30;8.77;;;7.20;;
16310;SDS011;8264;48.510;8.872;2023-06-10T02:57:57;8.27;;;7.37;;
16310;SDS011;8264;48.510;8.872;2023-06-10T03:00:24;7.47;;;6.77;;
16310;SDS011;8264;48.510;8.872;2023-06-10T03:02:52;7.80;;;7.00;;
16310;SDS011;8264;48.510;8.872;2023-06-10T03:05:22;8.97;;;7.00;;
16310;SDS011;8264;48.510;8.872;2023-06-10T03:07:49;9.90;;;7.13;;
16310;SDS011;8264;48.510;8.872;2023-06-10T03:10:15;8.07;;;7.30;;
16310;SDS011;8264;48.510;8.872;2023-06-10T03:12:42;7.80;;;7.00;;
16310;SDS011;8264;48.510;8.872;2023-06-10T03:15:08;7.73;;;6.90;;
16310;SDS011;8264;48.510;8.872;2023-06-10T03:17:35;8.87;;;7.33;;
16310;SDS011;8264;48.510;8.872;2023-06-10T03:20:03;7.40;;;6.40;;
16310;SDS011;8264;48.510;8.872;2023-06-10T03:22:30;7.87;;;7.17;;
16310;SDS011;8264;48.510;8.872;2023-06-10T03:24:57;8.00;;;7.20;;
16310;SDS011;8264;48.510;8.872;2023-06-10T03:27:24;7.40;;;6.60;;
16310;SDS011;8264;48.510;8.872;2023-06-10T03:29:51;7.93;;;6.77;;
16310;SDS011;8264;48.510;8.872;2023-06-10T03:32:18;8.00;;;7.30;;
16310;SDS011;8264;48.510;8.872;2023-06-10T03:34:44;7.30;;;6.57;;
16310;SDS011;8264;48.510;8.872;2023-06-10T03:37:13;8.37;;;7.30;;
16310;SDS011;8264;48.510;8.872;2023-06-10T03:39:40;7.63;;;6.87;;
16310;SDS011;8264;48.510;8.872;2023-06-10T03:42:07;8.10;;;6.87;;
16310;SDS011;8264;48.510;8.872;2023-06-10T03:44:33;7.03;;;6.43;;
16310;SDS011;8264;48.510;8.872;2023-06-10T03:46:59;8.33;;;6.90;;
16310;SDS011;8264;48.510;8.872;2023-06-10T03:49:26;9.70;;;7.27;;
16310;SDS011;8264;48.510;8.872;2023-06-10T03:51:54;9.17;;;6.47;;
16310;SDS011;8264;48.510;8.872;2023-06-10T03:54:22;7.80;;;6.60;;
16310;SDS011;8264;48.510;8.872;2023-06-10T03:56:48;6.73;;;5.93;;
16310;SDS011;8264;48.510;8.872;2023-06-10T03:59:15;6.57;;;6.00;;
16310;SDS011;8264;48.510;8.872;2023-06-10T04:01:42;7.13;;;6.43;;
16310;SDS011;8264;48.510;8.872;2023-06-10T04:04:08;8.37;;;6.70;;
16310;SDS011;8264;48.510;8.872;2023-06-10T04:06:35;7.17;;;6.53;;
16310;SDS011;8264;48.510;8.872;2023-06-10T04:09:02;7.57;;;6.83;;
16310;SDS011;8264;48.510;8.872;2023-06-10T04:11:30;10.50;;;6.90;;
16310;SDS011;8264;48.510;8.872;2023-06-10T04:13:57;7.20;;;6.37;;
16310;SDS011;8264;48.510;8.872;2023-06-10T04:16:24;6.73;;;6.10;;
16310;SDS011;8264;48.510;8.872;2023-06-10T04:18:51;7.90;;;6.63;;
16310;SDS011;8264;48.510;8.872;2023-06-10T04:21:17;6.60;;;6.00;;
16310;SDS011;8264;48.510;8.872;2023-06-10T04:23:44;8.10;;;6.70;;
16310;SDS011;8264;48.510;8.872;2023-06-10T04:26:10;7.57;;;5.83;;
16310;SDS011;8264;48.510;8.872;2023-06-10T04:28:38;6.27;;;5.77;;
16310;SDS011;8264;48.510;8.872;2023-06-10T04:31:04;7.67;;;6.37;;
16310;SDS011;8264;48.510;8.872;2023-06-10T04:33:31;6.67;;;6.07;;
16310;SDS011;8264;48.510;8.872;2023-06-10T04:35:58;6.37;;;5.50;;
16310;SDS011;8264;48.510;8.872;2023-06-10T04:38:24;6.70;;;5.80;;
16310;SDS011;8264;48.510;8.872;2023-06-10T04:40:51;7.73;;;7.03;;
16310;SDS011;8264;48.510;8.872;2023-06-10T04:43:18;6.87;;;6.17;;
16310;SDS011;8264;48.510;8.872;2023-06-10T04:45:45;7.30;;;6.37;;
16310;SDS011;8264;48.510;8.872;2023-06-10T04:48:12;7.60;;;6.80;;
16310;SDS011;8264;48.510;8.872;2023-06-10T04:50:38;8.50;;;7.17;;
16310;SDS011;8264;48.510;8.872;2023-06-10T04:53:05;8.00;;;7.13;;
16310;SDS011;8264;48.510;8.872;2023-06-10T04:55:32;9.87;;;7.20;;
16310;SDS011;8264;48.510;8.872;2023-06-10T04:57:59;10.77;;;7.80;;
16310;SDS011;8264;48.510;8.872;2023-06-10T05:00:25;8.10;;;7.40;;
16310;SDS011;8264;48.510;8.872;2023-06-10T05:02:53;9.07;;;7.10;;
16310;SDS011;8264;48.510;8.872;2023-06-10T05:05:21;9.60;;;7.60;;
16310;SDS011;8264;48.510;8.872;2023-06-10T05:07:47;8.87;;;8.10;;
16310;SDS011;8264;48.510;8.872;2023-06-10T05:10:14;9.70;;;8.00;;
16310;SDS011;8264;48.510;8.872;2023-06-10T05:12:40;8.40;;;7.70;;
16310;SDS011;8264;48.510;8.872;2023-06-10T05:15:07;8.80;;;7.97;;
16310;SDS011;8264;48.510;8.872;2023-06-10T05:17:34;8.40;;;7.70;;
16310;SDS011;8264;48.510;8.872;2023-06-10T05:20:02;8.63;;;7.70;;
16310;SDS011;8264;48.510;8.872;2023-06-10T05:22:29;8.50;;;7.70;;
16310;SDS011;8264;48.510;8.872;2023-06-10T05:24:56;8.83;;;7.93;;
16310;SDS011;8264;48.510;8.872;2023-06-10T05:27:22;8.83;;;7.53;;
16310;SDS011;8264;48.510;8.872;2023-06-10T05:29:49;10.57;;;7.73;;
16310;SDS011;8264;48.510;8.872;2023-06-10T05:32:16;10.53;;;8.10;;
16310;SDS011;8264;48.510;8.872;2023-06-10T05:34:43;10.53;;;7.17;;
16310;SDS011;8264;48.510;8.872;2023-06-10T05:37:10;9.40;;;8.07;;
16310;SDS011;8264;48.510;8.872;2023-06-10T05:39:37;12.77;;;8.70;;
16310;SDS011;8264;48.510;8.872;2023-06-10T05:42:04;7.77;;;6.97;;
16310;SDS011;8264;48.510;8.872;2023-06-10T05:44:31;8.10;;;6.73;;
16310;SDS011;8264;48.510;8.872;2023-06-10T05:46:58;8.03;;;6.77;;
16310;SDS011;8264;48.510;8.872;2023-06-10T05:49:24;11.30;;;7.60;;
16310;SDS011;8264;48.510;8.872;2023-06-10T05:51:51;8.77;;;7.87;;
16310;SDS011;8264;48.510;8.872;2023-06-10T05:54:19;8.00;;;6.93;;
16310;SDS011;8264;48.510;8.872;2023-06-10T05:56:46;10.33;;;6.93;;
16310;SDS011;8264;48.510;8.872;2023-06-10T05:59:12;10.03;;;6.20;;
16310;SDS011;8264;48.510;8.872;2023-06-10T06:01:39;15.80;;;6.60;;
16310;SDS011;8264;48.510;8.872;2023-06-10T06:04:05;6.80;;;5.87;;
16310;SDS011;8264;48.510;8.872;2023-06-10T06:06:32;8.27;;;7.13;;
16310;SDS011;8264;48.510;8.872;2023-06-10T06:08:58;9.03;;;7.17;;
16310;SDS011;8264;48.510;8.872;2023-06-10T06:11:26;8.00;;;7.20;;
16310;SDS011;8264;48.510;8.872;2023-06-10T06:13:53;11.03;;;6.33;;
16310;SDS011;8264;48.510;8.872;2023-06-10T06:16:19;10.00;;;6.63;;
16310;SDS011;8264;48.510;8.872;2023-06-10T06:18:45;9.83;;;7.53;;
16310;SDS011;8264;48.510;8.872;2023-06-10T06:21:12;10.03;;;8.30;;
16310;SDS011;8264;48.510;8.872;2023-06-10T06:23:38;10.20;;;8.00;;
16310;SDS011;8264;48.510;8.872;2023-06-10T06:26:05;7.97;;;7.17;;
16310;SDS011;8264;48.510;8.872;2023-06-10T06:28:33;8.87;;;6.83;;
16310;SDS011;8264;48.510;8.872;2023-06-10T06:30:59;7.50;;;6.77;;
16310;SDS011;8264;48.510;8.872;2023-06-10T06:33:26;7.63;;;6.63;;
16310;SDS011;8264;48.510;8.872;2023-06-10T06:35:52;9.63;;;6.83;;
16310;SDS011;8264;48.510;8.872;2023-06-10T06:38:19;7.20;;;6.50;;
16310;SDS011;8264;48.510;8.872;2023-06-10T06:40:45;8.07;;;6.23;;
16310;SDS011;8264;48.510;8.872;2023-06-10T06:43:12;6.80;;;6.10;;
16310;SDS011;8264;48.510;8.872;2023-06-10T06:45:40;6.83;;;6.23;;
16310;SDS011;8264;48.510;8.872;2023-06-10T06:48:06;6.50;;;5.50;;
16310;SDS011;8264;48.510;8.872;2023-06-10T06:50:33;6.97;;;6.20;;
16310;SDS011;8264;48.510;8.872;2023-06-10T06:52:59;7.93;;;6.17;;
16310;SDS011;8264;48.510;8.872;2023-06-10T06:55:26;7.03;;;6.30;;
16310;SDS011;8264;48.510;8.872;2023-06-10T06:57:52;6.47;;;5.77;;
16310;SDS011;8264;48.510;8.872;2023-06-10T07:00:19;8.40;;;5.47;;
16310;SDS011;8264;48.510;8.872;2023-06-10T07:02:47;6.53;;;5.80;;
16310;SDS011;8264;48.510;8.872;2023-06-10T07:05:14;6.37;;;5.77;;
16310;SDS011;8264;48.510;8.872;2023-06-10T07:07:40;7.00;;;6.30;;
16310;SDS011;8264;48.510;8.872;2023-06-10T07:10:07;6.53;;;5.90;;
16310;SDS011;8264;48.510;8.872;2023-06-10T07:12:34;6.13;;;5.60;;
16310;SDS011;8264;48.510;8.872;2023-06-10T07:15:00;6.90;;;6.30;;
16310;SDS011;8264;48.510;8.872;2023-06-10T07:17:27;6.73;;;5.70;;
16310;SDS011;8264;48.510;8.872;2023-06-10T07:19:55;7.20;;;5.10;;
16310;SDS011;8264;48.510;8.872;2023-06-10T07:22:22;6.70;;;6.00;;
16310;SDS011;8264;48.510;8.872;2023-06-10T07:24:49;6.50;;;5.90;;
16310;SDS011;8264;48.510;8.872;2023-06-10T07:27:16;6.43;;;5.77;;
16310;SDS011;8264;48.510;8.872;2023-06-10T07:29:43;6.80;;;5.87;;
16310;SDS011;8264;48.510;8.872;2023-06-10T07:32:09;7.93;;;5.80;;
16310;SDS011;8264;48.510;8.872;2023-06-10T07:34:36;6.77;;;6.10;;
16310;SDS011;8264;48.510;8.872;2023-06-10T07:37:04;6.67;;;6.00;;
16310;SDS011;8264;48.510;8.872;2023-06-10T07:39:31;8.10;;;6.10;;
16310;SDS011;8264;48.510;8.872;2023-06-10T07:41:57;6.43;;;5.70;;
16310;SDS011;8264;48.510;8.872;2023-06-10T07:44:24;6.07;;;5.40;;
16310;SDS011;8264;48.510;8.872;2023-06-10T07:46:50;6.20;;;5.70;;
16310;SDS011;8264;48.510;8.872;2023-06-10T07:49:17;5.80;;;5.30;;
16310;SDS011;8264;48.510;8.872;2023-06-10T07:51:43;5.53;;;5.03;;
16310;SDS011;8264;48.510;8.872;2023-06-10T07:54:11;6.03;;;5.53;;
16310;SDS011;8264;48.510;8.872;2023-06-10T07:56:38;6.03;;;5.53;;
16310;SDS011;8264;48.510;8.872;2023-06-10T07:59:04;5.67;;;5.17;;
16310;SDS011;8264;48.510;8.872;2023-06-10T08:01:31;5.93;;;5.30;;
16310;SDS011;8264;48.510;8.872;2023-06-10T08:03:58;5.50;;;5.00;;
16310;SDS011;8264;48.510;8.872;2023-06-10T08:06:24;5.37;;;4.97;;
16310;SDS011;8264;48.510;8.872;2023-06-10T08:08:51;7.57;;;5.20;;
16310;SDS011;8264;48.510;8.872;2023-06-10T08:11:19;6.47;;;5.67;;
16310;SDS011;8264;48.510;8.872;2023-06-10T08:13:45;5.53;;;5.03;;
16310;SDS011;8264;48.510;8.872;2023-06-10T08:16:12;5.50;;;5.00;;
16310;SDS011;8264;48.510;8.872;2023-06-10T08:18:38;5.47;;;4.97;;
16310;SDS011;8264;48.510;8.872;2023-06-10T08:21:05;5.97;;;5.30;;
16310;SDS011;8264;48.510;8.872;2023-06-10T08:23:31;5.60;;;5.10;;
16310;SDS011;8264;48.510;8.872;2023-06-10T08:25:58;6.17;;;5.50;;
16310;SDS011;8264;48.510;8.872;2023-06-10T08:28:26;6.93;;;4.53;;
16310;SDS011;8264;48.510;8.872;2023-06-10T08:30:52;4.60;;;3.90;;
16310;SDS011;8264;48.510;8.872;2023-06-10T08:33:19;4.67;;;4.23;;
16310;SDS011;8264;48.510;8.872;2023-06-10T08:35:45;4.30;;;3.93;;
16310;SDS011;8264;48.510;8.872;2023-06-10T08:38:12;4.43;;;4.03;;
16310;SDS011;8264;48.510;8.872;2023-06-10T08:40:41;4.10;;;3.73;;
16310;SDS011;8264;48.510;8.872;2023-06-10T08:43:08;4.40;;;4.00;;
16310;SDS011;8264;48.510;8.872;2023-06-10T08:45:38;4.40;;;4.00;;
16310;SDS011;8264;48.510;8.872;2023-06-10T08:48:08;4.40;;;4.00;;
16310;SDS011;8264;48.510;8.872;2023-06-10T08:50:37;4.37;;;4.00;;
16310;SDS011;8264;48.510;8.872;2023-06-10T08:53:04;5.03;;;4.53;;
16310;SDS011;8264;48.510;8.872;2023-06-10T08:55:32;5.10;;;4.60;;
16310;SDS011;8264;48.510;8.872;2023-06-10T08:58:03;5.80;;;4.00;;
16310;SDS011;8264;48.510;8.872;2023-06-10T09:00:30;4.53;;;4.13;;
16310;SDS011;8264;48.510;8.872;2023-06-10T09:02:59;5.50;;;3.47;;
16310;SDS011;8264;48.510;8.872;2023-06-10T09:05:27;4.00;;;3.60;;
16310;SDS011;8264;48.510;8.872;2023-06-10T09:07:53;4.27;;;3.90;;
16310;SDS011;8264;48.510;8.872;2023-06-10T09:10:23;4.10;;;3.70;;
16310;SDS011;8264;48.510;8.872;2023-06-10T09:12:50;5.03;;;4.17;;
16310;SDS011;8264;48.510;8.872;2023-06-10T09:15:16;4.23;;;3.83;;
16310;SDS011;8264;48.510;8.872;2023-06-10T09:17:43;4.17;;;3.43;;
16310;SDS011;8264;48.510;8.872;2023-06-10T09:20:11;5.30;;;4.20;;
16310;SDS011;8264;48.510;8.872;2023-06-10T09:22:38;4.40;;;4.00;;
16310;SDS011;8264;48.510;8.872;2023-06-10T09:25:05;4.43;;;4.03;;
16310;SDS011;8264;48.510;8.872;2023-06-10T09:27:33;3.80;;;3.50;;
16310;SDS011;8264;48.510;8.872;2023-06-10T09:30:10;3.77;;;3.47;;
16310;SDS011;8264;48.510;8.872;2023-06-10T09:32:38;4.43;;;3.80;;
16310;SDS011;8264;48.510;8.872;2023-06-10T09:35:08;6.93;;;3.90;;
16310;SDS011;8264;48.510;8.872;2023-06-10T09:37:38;3.90;;;3.60;;
16310;SDS011;8264;48.510;8.872;2023-06-10T09:40:05;3.97;;;3.63;;
16310;SDS011;8264;48.510;8.872;2023-06-10T09:42:33;34.63;;;5.17;;
16310;SDS011;8264;48.510;8.872;2023-06-10T09:45:01;4.57;;;3.33;;
16310;SDS011;8264;48.510;8.872;2023-06-10T09:47:27;4.23;;;3.80;;
16310;SDS011;8264;48.510;8.872;2023-06-10T09:49:54;4.90;;;4.30;;
16310;SDS011;8264;48.510;8.872;2023-06-10T09:52:22;7.00;;;3.50;;
16310;SDS011;8264;48.510;8.872;2023-06-10T09:54:49;3.70;;;3.40;;
16310;SDS011;8264;48.510;8.872;2023-06-10T09:57:16;4.50;;;3.60;;
16310;SDS011;8264;48.510;8.872;2023-06-10T09:59:43;7.37;;;3.67;;
16310;SDS011;8264;48.510;8.872;2023-06-10T10:02:13;3.90;;;3.50;;
16310;SDS011;8264;48.510;8.872;2023-06-10T10:04:40;4.10;;;3.47;;
16310;SDS011;8264;48.510;8.872;2023-06-10T10:07:06;3.63;;;3.30;;
16310;SDS011;8264;48.510;8.872;2023-06-10T10:09:35;5.67;;;4.07;;
16310;SDS011;8264;48.510;8.872;2023-06-10T10:12:02;4.00;;;3.70;;
16310;SDS011;8264;48.510;8.872;2023-06-10T10:14:29;4.27;;;3.90;;
16310;SDS011;8264;48.510;8.872;2023-06-10T10:16:58;4.30;;;4.00;;
16310;SDS011;8264;48.510;8.872;2023-06-10T10:19:27;4.23;;;3.83;;
16310;SDS011;8264;48.510;8.872;2023-06-10T10:21:56;3.90;;;3.60;;
16310;SDS011;8264;48.510;8.872;2023-06-10T10:24:29;4.37;;;3.67;;
16310;SDS011;8264;48.510;8.872;2023-06-10T10:27:01;5.13;;;3.30;;
16310;SDS011;8264;48.510;8.872;2023-06-10T10:29:30;6.93;;;3.90;;
16310;SDS011;8264;48.510;8.872;2023-06-10T10:31:59;3.90;;;3.57;;
16310;SDS011;8264;48.510;8.872;2023-06-10T10:34:27;4.10;;;3.53;;
16310;SDS011;8264;48.510;8.872;2023-06-10T10:36:58;3.70;;;3.40;;
16310;SDS011;8264;48.510;8.872;2023-06-10T10:39:24;5.23;;;4.40;;
16310;SDS011;8264;48.510;8.872;2023-06-10T10:41:53;4.10;;;3.80;;
16310;SDS011;8264;48.510;8.872;2023-06-10T10:44:21;3.73;;;3.43;;
16310;SDS011;8264;48.510;8.872;2023-06-10T10:46:48;3.93;;;3.50;;
16310;SDS011;8264;48.510;8.872;2023-06-10T10:49:16;4.23;;;3.80;;
16310;SDS011;8264;48.510;8.872;2023-06-10T10:51:56;5.20;;;3.30;;
16310;SDS011;8264;48.510;8.872;2023-06-10T10:54:29;3.67;;;3.37;;
16310;SDS011;8264;48.510;8.872;2023-06-10T10:57:12;5.50;;;3.50;;
16310;SDS011;8264;48.510;8.872;2023-06-10T10:59:54;3.77;;;3.40;;
16310;SDS011;8264;48.510;8.872;2023-06-10T11:02:32;5.93;;;3.07;;
16310;SDS011;8264;48.510;8.872;2023-06-10T11:05:00;3.30;;;3.00;;
16310;SDS011;8264;48.510;8.872;2023-06-10T11:07:28;4.20;;;3.37;;
16310;SDS011;8264;48.510;8.872;2023-06-10T11:09:59;4.03;;;2.80;;
16310;SDS011;8264;48.510;8.872;2023-06-10T11:12:26;3.03;;;2.83;;
16310;SDS011;8264;48.510;8.872;2023-06-10T11:15:08;5.07;;;3.10;;
16310;SDS011;8264;48.510;8.872;2023-06-10T11:17:34;4.70;;;3.13;;
16310;SDS011;8264;48.510;8.872;2023-06-10T11:20:01;6.23;;;2.87;;
16310;SDS011;8264;48.510;8.872;2023-06-10T11:22:28;3.77;;;3.40;;
16310;SDS011;8264;48.510;8.872;2023-06-10T11:24:54;4.23;;;2.83;;
16310;SDS011;8264;48.510;8.872;2023-06-10T11:27:24;3.00;;;2.70;;
16310;SDS011;8264;48.510;8.872;2023-06-10T11:32:50;3.00;;;2.80;;
16310;SDS011;8264;48.510;8.872;2023-06-10T11:35:18;3.30;;;3.10;;
16310;SDS011;8264;48.510;8.872;2023-06-10T11:37:44;3.57;;;3.00;;
16310;SDS011;8264;48.510;8.872;2023-06-10T11:40:11;2.90;;;2.70;;
16310;SDS011;8264;48.510;8.872;2023-06-10T11:42:38;2.90;;;2.70;;
16310;SDS011;8264;48.510;8.872;2023-06-10T11:45:05;4.93;;;3.10;;
16310;SDS011;8264;48.510;8.872;2023-06-10T11:47:35;3.13;;;2.73;;
16310;SDS011;8264;48.510;8.872;2023-06-10T11:50:01;4.60;;;3.03;;
16310;SDS011;8264;48.510;8.872;2023-06-10T11:52:28;2.93;;;2.73;;
16310;SDS011;8264;48.510;8.872;2023-06-10T11:54:57;7.03;;;3.13;;
16310;SDS011;8264;48.510;8.872;2023-06-10T11:57:23;3.33;;;3.03;;
16310;SDS011;8264;48.510;8.872;2023-06-10T11:59:50;4.50;;;3.20;;
16310;SDS011;8264;48.510;8.872;2023-06-10T12:02:16;3.27;;;3.00;;
16310;SDS011;8264;48.510;8.872;2023-06-10T12:04:46;4.67;;;3.10;;
16310;SDS011;8264;48.510;8.872;2023-06-10T12:07:17;4.00;;;3.20;;
16310;SDS011;8264;48.510;8.872;2023-06-10T12:09:43;3.00;;;2.70;;
16310;SDS011;8264;48.510;8.872;2023-06-10T12:12:10;3.30;;;2.70;;
16310;SDS011;8264;48.510;8.872;2023-06-10T12:14:53;3.17;;;2.87;;
16310;SDS011;8264;48.510;8.872;2023-06-10T12:17:21;4.83;;;2.73;;
16310;SDS011;8264;48.510;8.872;2023-06-10T12:19:50;4.73;;;3.63;;
16310;SDS011;8264;48.510;8.872;2023-06-10T12:22:16;4.07;;;3.27;;
16310;SDS011;8264;48.510;8.872;2023-06-10T12:24:44;5.23;;;3.30;;
16310;SDS011;8264;48.510;8.872;2023-06-10T12:27:11;3.57;;;3.27;;
16310;SDS011;8264;48.510;8.872;2023-06-10T12:29:38;3.77;;;3.30;;
16310;SDS011;8264;48.510;8.872;2023-06-10T12:32:04;4.23;;;3.77;;
16310;SDS011;8264;48.510;8.872;2023-06-10T12:34:33;3.50;;;3.20;;
16310;SDS011;8264;48.510;8.872;2023-06-10T12:37:02;3.60;;;3.20;;
16310;SDS011;8264;48.510;8.872;2023-06-10T12:39:31;4.87;;;3.30;;
16310;SDS011;8264;48.510;8.872;2023-06-10T12:41:58;4.33;;;2.93;;
16310;SDS011;8264;48.510;8.872;2023-06-10T12:44:34;3.23;;;2.93;;
16310;SDS011;8264;48.510;8.872;2023-06-10T12:47:06;3.40;;;3.10;;
16310;SDS011;8264;48.510;8.872;2023-06-10T12:49:33;3.53;;;2.93;;
16310;SDS011;8264;48.510;8.872;2023-06-10T12:52:00;3.07;;;2.80;;
16310;SDS011;8264;48.510;8.872;2023-06-10T12:54:29;3.70;;;2.83;;
16310;SDS011;8264;48.510;8.872;2023-06-10T12:56:55;3.40;;;3.10;;
16310;SDS011;8264;48.510;8.872;2023-06-10T12:59:22;3.40;;;3.10;;
16310;SDS011;8264;48.510;8.872;2023-06-10T13:01:50;3.10;;;2.90;;
16310;SDS011;8264;48.510;8.872;2023-06-10T13:04:17;5.43;;;2.90;;
16310;SDS011;8264;48.510;8.872;2023-06-10T13:06:44;2.97;;;2.77;;
16310;SDS011;8264;48.510;8.872;2023-06-10T13:09:13;5.50;;;3.03;;
16310;SDS011;8264;48.510;8.872;2023-06-10T13:11:40;3.23;;;2.60;;
16310;SDS011;8264;48.510;8.872;2023-06-10T13:14:07;4.10;;;2.90;;
16310;SDS011;8264;48.510;8.872;2023-06-10T13:16:34;2.60;;;2.40;;
16310;SDS011;8264;48.510;8.872;2023-06-10T13:19:03;3.00;;;2.50;;
16310;SDS011;8264;48.510;8.872;2023-06-10T13:21:30;5.57;;;2.60;;
16310;SDS011;8264;48.510;8.872;2023-06-10T13:23:56;5.13;;;2.50;;
16310;SDS011;8264;48.510;8.872;2023-06-10T13:26:24;2.63;;;2.43;;
16310;SDS011;8264;48.510;8.872;2023-06-10T13:28:51;4.13;;;2.40;;
16310;SDS011;8264;48.510;8.872;2023-06-10T13:33:50;5.70;;;2.90;;
16310;SDS011;8264;48.510;8.872;2023-06-10T13:36:17;3.00;;;2.70;;
16310;SDS011;8264;48.510;8.872;2023-06-10T13:38:43;3.70;;;2.73;;
16310;SDS011;8264;48.510;8.872;2023-06-10T13:41:10;4.67;;;2.87;;
16310;SDS011;8264;48.510;8.872;2023-06-10T13:43:38;2.93;;;2.30;;
16310;SDS011;8264;48.510;8.872;2023-06-10T13:46:05;3.17;;;2.73;;
16310;SDS011;8264;48.510;8.872;2023-06-10T13:48:31;3.00;;;2.70;;
16310;SDS011;8264;48.510;8.872;2023-06-10T13:50:58;4.07;;;2.67;;
16310;SDS011;8264;48.510;8.872;2023-06-10T13:53:25;3.90;;;3.17;;
16310;SDS011;8264;48.510;8.872;2023-06-10T13:55:52;5.77;;;3.00;;
16310;SDS011;8264;48.510;8.872;2023-06-10T13:58:19;7.53;;;3.00;;
16310;SDS011;8264;48.510;8.872;2023-06-10T14:00:47;3.23;;;2.60;;
16310;SDS011;8264;48.510;8.872;2023-06-10T14:03:13;4.63;;;3.47;;
16310;SDS011;8264;48.510;8.872;2023-06-10T14:05:40;53.40;;;18.23;;
16310;SDS011;8264;48.510;8.872;2023-06-10T14:08:06;58.13;;;22.03;;
16310;SDS011;8264;48.510;8.872;2023-06-10T14:10:33;3.87;;;2.80;;
16310;SDS011;8264;48.510;8.872;2023-06-10T14:12:59;3.63;;;2.70;;
16310;SDS011;8264;48.510;8.872;2023-06-10T14:15:26;3.27;;;3.00;;
16310;SDS011;8264;48.510;8.872;2023-06-10T14:17:54;3.37;;;2.70;;
16310;SDS011;8264;48.510;8.872;2023-06-10T14:20:20;3.17;;;2.90;;
16310;SDS011;8264;48.510;8.872;2023-06-10T14:22:47;3.30;;;2.87;;
16310;SDS011;8264;48.510;8.872;2023-06-10T14:25:13;3.33;;;2.97;;
16310;SDS011;8264;48.510;8.872;2023-06-10T14:27:40;3.00;;;2.80;;
16310;SDS011;8264;48.510;8.872;2023-06-10T14:30:07;3.43;;;3.13;;
16310;SDS011;8264;48.510;8.872;2023-06-10T14:32:34;4.57;;;3.00;;
16310;SDS011;8264;48.510;8.872;2023-06-10T14:35:02;5.10;;;2.80;;
16310;SDS011;8264;48.510;8.872;2023-06-10T14:37:28;3.60;;;3.30;;
16310;SDS011;8264;48.510;8.872;2023-06-10T14:39:55;6.00;;;2.97;;
16310;SDS011;8264;48.510;8.872;2023-06-10T14:42:21;3.30;;;3.00;;
16310;SDS011;8264;48.510;8.872;2023-06-10T14:44:48;3.20;;;2.90;;
16310;SDS011;8264;48.510;8.872;2023-06-10T14:47:15;3.53;;;2.80;;
16310;SDS011;8264;48.510;8.872;2023-06-10T14:49:42;7.60;;;3.73;;
16310;SDS011;8264;48.510;8.872;2023-06-10T14:52:10;3.27;;;2.97;;
16310;SDS011;8264;48.510;8.872;2023-06-10T14:54:37;3.60;;;2.90;;
16310;SDS011;8264;48.510;8.872;2023-06-10T14:57:04;3.33;;;2.70;;
16310;SDS011;8264;48.510;8.872;2023-06-10T14:59:31;4.10;;;3.30;;
16310;SDS011;8264;48.510;8.872;2023-06-10T15:01:57;4.20;;;3.20;;
16310;SDS011;8264;48.510;8.872;2023-06-10T15:04:25;4.17;;;3.03;;
16310;SDS011;8264;48.510;8.872;2023-06-10T15:06:52;3.73;;;2.83;;